sensor_id;sensor_type;location;lat;lon;timestamp;P1;durP1;ratioP1;P2;durP2;ratioP2
10643;SDS011;5370;50.132;8.626;2023-09-12T00:00:47;18.23;;;10.00;;
10643;SDS011;5370;50.132;8.626;2023-09-12T00:03:12;17.50;;;9.55;;
10643;SDS011;5370;50.132;8.626;2023-09-12T00:05:38;16.15;;;9.82;;
10643;SDS011;5370;50.132;8.626;2023-09-12T00:08:03;20.85;;;10.43;;
10643;SDS011;5370;50.132;8.626;2023-09-12T00:10:29;20.40;;;9.30;;
10643;SDS011;5370;50.132;8.626;2023-09-12T00:12:56;14.68;;;9.07;;
10643;SDS011;5370;50.132;8.626;2023-09-12T00:15:23;17.08;;;9.02;;
10643;SDS011;5370;50.132;8.626;2023-09-12T00:17:49;16.38;;;9.90;;
10643;SDS011;5370;50.132;8.626;2023-09-12T00:20:14;20.60;;;9.77;;
10643;SDS011;5370;50.132;8.626;2023-09-12T00:22:40;13.07;;;9.93;;
10643;SDS011;5370;50.132;8.626;2023-09-12T00:25:05;17.10;;;10.48;;
10643;SDS011;5370;50.132;8.626;2023-09-12T00:27:31;20.13;;;11.25;;
10643;SDS011;5370;50.132;8.626;2023-09-12T00:29:57;19.65;;;11.32;;
10643;SDS011;5370;50.132;8.626;2023-09-12T00:32:22;19.30;;;11.38;;
10643;SDS011;5370;50.132;8.626;2023-09-12T00:34:48;22.30;;;10.70;;
10643;SDS011;5370;50.132;8.626;2023-09-12T00:37:13;20.77;;;11.23;;
10643;SDS011;5370;50.132;8.626;2023-09-12T00:39:39;20.02;;;11.85;;
10643;SDS011;5370;50.132;8.626;2023-09-12T00:42:04;16.05;;;11.02;;
10643;SDS011;5370;50.132;8.626;2023-09-12T00:44:32;17.73;;;11.02;;
10643;SDS011;5370;50.132;8.626;2023-09-12T00:46:58;22.30;;;11.20;;
10643;SDS011;5370;50.132;8.626;2023-09-12T00:49:24;25.65;;;11.88;;
10643;SDS011;5370;50.132;8.626;2023-09-12T00:51:51;19.45;;;11.07;;
10643;SDS011;5370;50.132;8.626;2023-09-12T00:54:18;18.80;;;10.95;;
10643;SDS011;5370;50.132;8.626;2023-09-12T00:56:43;18.45;;;11.32;;
10643;SDS011;5370;50.132;8.626;2023-09-12T00:59:09;26.52;;;11.23;;
10643;SDS011;5370;50.132;8.626;2023-09-12T01:01:36;21.60;;;11.13;;
10643;SDS011;5370;50.132;8.626;2023-09-12T01:04:02;18.42;;;11.20;;
10643;SDS011;5370;50.132;8.626;2023-09-12T01:06:27;23.40;;;11.40;;
10643;SDS011;5370;50.132;8.626;2023-09-12T01:08:55;18.90;;;11.25;;
10643;SDS011;5370;50.132;8.626;2023-09-12T01:11:21;20.17;;;10.63;;
10643;SDS011;5370;50.132;8.626;2023-09-12T01:13:47;18.98;;;10.30;;
10643;SDS011;5370;50.132;8.626;2023-09-12T01:16:13;15.68;;;9.65;;
10643;SDS011;5370;50.132;8.626;2023-09-12T01:18:38;21.50;;;11.05;;
10643;SDS011;5370;50.132;8.626;2023-09-12T01:29:25;23.98;;;10.15;;
10643;SDS011;5370;50.132;8.626;2023-09-12T01:31:51;19.55;;;11.23;;
10643;SDS011;5370;50.132;8.626;2023-09-12T01:34:18;19.05;;;10.60;;
10643;SDS011;5370;50.132;8.626;2023-09-12T01:36:44;12.43;;;9.35;;
10643;SDS011;5370;50.132;8.626;2023-09-12T01:39:09;17.90;;;11.10;;
10643;SDS011;5370;50.132;8.626;2023-09-12T01:41:38;22.73;;;10.32;;
10643;SDS011;5370;50.132;8.626;2023-09-12T01:44:05;25.17;;;9.55;;
10643;SDS011;5370;50.132;8.626;2023-09-12T01:46:33;21.90;;;9.73;;
10643;SDS011;5370;50.132;8.626;2023-09-12T01:49:00;17.45;;;10.68;;
10643;SDS011;5370;50.132;8.626;2023-09-12T01:51:29;19.38;;;10.50;;
10643;SDS011;5370;50.132;8.626;2023-09-12T01:53:55;19.88;;;10.20;;
10643;SDS011;5370;50.132;8.626;2023-09-12T01:56:21;22.20;;;10.23;;
10643;SDS011;5370;50.132;8.626;2023-09-12T01:58:48;16.58;;;9.80;;
10643;SDS011;5370;50.132;8.626;2023-09-12T02:01:14;17.00;;;9.55;;
10643;SDS011;5370;50.132;8.626;2023-09-12T02:03:39;23.77;;;10.73;;
10643;SDS011;5370;50.132;8.626;2023-09-12T02:06:05;22.80;;;10.82;;
10643;SDS011;5370;50.132;8.626;2023-09-12T02:08:30;18.48;;;10.23;;
10643;SDS011;5370;50.132;8.626;2023-09-12T02:10:56;17.67;;;10.10;;
10643;SDS011;5370;50.132;8.626;2023-09-12T02:13:21;19.27;;;10.70;;
10643;SDS011;5370;50.132;8.626;2023-09-12T02:15:47;20.75;;;11.43;;
10643;SDS011;5370;50.132;8.626;2023-09-12T02:18:12;21.45;;;12.00;;
10643;SDS011;5370;50.132;8.626;2023-09-12T02:20:41;25.20;;;11.27;;
10643;SDS011;5370;50.132;8.626;2023-09-12T02:23:10;17.58;;;11.73;;
10643;SDS011;5370;50.132;8.626;2023-09-12T02:25:36;13.65;;;10.43;;
10643;SDS011;5370;50.132;8.626;2023-09-12T02:28:02;18.13;;;11.02;;
10643;SDS011;5370;50.132;8.626;2023-09-12T02:30:28;20.65;;;12.05;;
10643;SDS011;5370;50.132;8.626;2023-09-12T02:32:54;24.58;;;11.10;;
10643;SDS011;5370;50.132;8.626;2023-09-12T02:35:19;19.90;;;11.57;;
10643;SDS011;5370;50.132;8.626;2023-09-12T02:37:45;24.08;;;12.00;;
10643;SDS011;5370;50.132;8.626;2023-09-12T02:40:10;17.30;;;10.68;;
10643;SDS011;5370;50.132;8.626;2023-09-12T02:42:36;22.08;;;11.95;;
10643;SDS011;5370;50.132;8.626;2023-09-12T02:45:03;22.50;;;10.85;;
10643;SDS011;5370;50.132;8.626;2023-09-12T02:47:29;16.23;;;10.05;;
10643;SDS011;5370;50.132;8.626;2023-09-12T02:49:54;16.58;;;10.70;;
10643;SDS011;5370;50.132;8.626;2023-09-12T02:52:20;25.85;;;11.07;;
10643;SDS011;5370;50.132;8.626;2023-09-12T02:54:45;21.15;;;10.75;;
10643;SDS011;5370;50.132;8.626;2023-09-12T02:57:11;18.98;;;11.30;;
10643;SDS011;5370;50.132;8.626;2023-09-12T02:59:37;16.98;;;11.00;;
10643;SDS011;5370;50.132;8.626;2023-09-12T03:02:02;20.77;;;10.75;;
10643;SDS011;5370;50.132;8.626;2023-09-12T03:04:29;22.05;;;10.60;;
10643;SDS011;5370;50.132;8.626;2023-09-12T03:06:54;22.45;;;11.40;;
10643;SDS011;5370;50.132;8.626;2023-09-12T03:09:20;19.95;;;10.18;;
10643;SDS011;5370;50.132;8.626;2023-09-12T03:11:47;18.27;;;10.73;;
10643;SDS011;5370;50.132;8.626;2023-09-12T03:14:14;18.55;;;11.55;;
10643;SDS011;5370;50.132;8.626;2023-09-12T03:16:39;19.80;;;10.88;;
10643;SDS011;5370;50.132;8.626;2023-09-12T03:19:05;18.48;;;11.63;;
10643;SDS011;5370;50.132;8.626;2023-09-12T03:21:30;13.18;;;9.02;;
10643;SDS011;5370;50.132;8.626;2023-09-12T03:23:56;18.13;;;10.30;;
10643;SDS011;5370;50.132;8.626;2023-09-12T03:26:22;15.13;;;10.13;;
10643;SDS011;5370;50.132;8.626;2023-09-12T03:28:48;16.50;;;10.68;;
10643;SDS011;5370;50.132;8.626;2023-09-12T03:31:16;20.52;;;11.25;;
10643;SDS011;5370;50.132;8.626;2023-09-12T03:33:41;20.63;;;10.65;;
10643;SDS011;5370;50.132;8.626;2023-09-12T03:36:08;23.08;;;10.98;;
10643;SDS011;5370;50.132;8.626;2023-09-12T03:38:34;18.30;;;10.38;;
10643;SDS011;5370;50.132;8.626;2023-09-12T03:41:00;20.30;;;10.88;;
10643;SDS011;5370;50.132;8.626;2023-09-12T03:43:26;20.77;;;11.15;;
10643;SDS011;5370;50.132;8.626;2023-09-12T03:45:52;18.80;;;11.43;;
10643;SDS011;5370;50.132;8.626;2023-09-12T03:48:18;21.80;;;11.55;;
10643;SDS011;5370;50.132;8.626;2023-09-12T03:50:44;19.05;;;11.77;;
10643;SDS011;5370;50.132;8.626;2023-09-12T03:53:10;21.38;;;11.13;;
10643;SDS011;5370;50.132;8.626;2023-09-12T03:55:36;22.95;;;11.20;;
10643;SDS011;5370;50.132;8.626;2023-09-12T03:58:02;18.58;;;11.18;;
10643;SDS011;5370;50.132;8.626;2023-09-12T04:00:27;27.77;;;11.88;;
10643;SDS011;5370;50.132;8.626;2023-09-12T04:02:53;17.85;;;11.30;;
10643;SDS011;5370;50.132;8.626;2023-09-12T04:05:18;18.48;;;11.35;;
10643;SDS011;5370;50.132;8.626;2023-09-12T04:07:44;18.38;;;12.43;;
10643;SDS011;5370;50.132;8.626;2023-09-12T04:10:09;24.95;;;12.35;;
10643;SDS011;5370;50.132;8.626;2023-09-12T04:12:35;18.05;;;10.63;;
10643;SDS011;5370;50.132;8.626;2023-09-12T04:15:00;24.25;;;12.25;;
10643;SDS011;5370;50.132;8.626;2023-09-12T04:17:26;21.17;;;11.98;;
10643;SDS011;5370;50.132;8.626;2023-09-12T04:19:51;18.40;;;11.13;;
10643;SDS011;5370;50.132;8.626;2023-09-12T04:22:17;17.20;;;11.90;;
10643;SDS011;5370;50.132;8.626;2023-09-12T04:24:42;21.08;;;11.65;;
10643;SDS011;5370;50.132;8.626;2023-09-12T04:27:08;15.27;;;10.07;;
10643;SDS011;5370;50.132;8.626;2023-09-12T04:29:33;18.25;;;11.50;;
10643;SDS011;5370;50.132;8.626;2023-09-12T04:32:01;22.30;;;12.27;;
10643;SDS011;5370;50.132;8.626;2023-09-12T04:34:28;22.63;;;11.55;;
10643;SDS011;5370;50.132;8.626;2023-09-12T04:36:53;17.95;;;11.90;;
10643;SDS011;5370;50.132;8.626;2023-09-12T04:39:19;21.45;;;11.43;;
10643;SDS011;5370;50.132;8.626;2023-09-12T04:41:45;18.27;;;11.60;;
10643;SDS011;5370;50.132;8.626;2023-09-12T04:44:11;19.48;;;10.68;;
10643;SDS011;5370;50.132;8.626;2023-09-12T04:46:36;15.35;;;10.48;;
10643;SDS011;5370;50.132;8.626;2023-09-12T04:49:02;18.52;;;11.35;;
10643;SDS011;5370;50.132;8.626;2023-09-12T04:51:28;17.55;;;11.50;;
10643;SDS011;5370;50.132;8.626;2023-09-12T04:53:54;27.95;;;11.23;;
10643;SDS011;5370;50.132;8.626;2023-09-12T04:56:20;24.10;;;10.32;;
10643;SDS011;5370;50.132;8.626;2023-09-12T04:58:45;22.02;;;11.07;;
10643;SDS011;5370;50.132;8.626;2023-09-12T05:01:11;17.75;;;11.68;;
10643;SDS011;5370;50.132;8.626;2023-09-12T05:03:36;22.58;;;12.23;;
10643;SDS011;5370;50.132;8.626;2023-09-12T05:06:02;24.98;;;12.27;;
10643;SDS011;5370;50.132;8.626;2023-09-12T05:08:28;23.50;;;11.65;;
10643;SDS011;5370;50.132;8.626;2023-09-12T05:10:54;24.23;;;11.60;;
10643;SDS011;5370;50.132;8.626;2023-09-12T05:13:20;23.13;;;12.55;;
10643;SDS011;5370;50.132;8.626;2023-09-12T05:15:46;20.02;;;10.93;;
10643;SDS011;5370;50.132;8.626;2023-09-12T05:18:12;22.10;;;11.38;;
10643;SDS011;5370;50.132;8.626;2023-09-12T05:20:37;19.73;;;11.13;;
10643;SDS011;5370;50.132;8.626;2023-09-12T05:23:03;23.38;;;11.70;;
10643;SDS011;5370;50.132;8.626;2023-09-12T05:25:29;18.95;;;11.57;;
10643;SDS011;5370;50.132;8.626;2023-09-12T05:27:55;22.00;;;11.23;;
10643;SDS011;5370;50.132;8.626;2023-09-12T05:30:21;24.75;;;11.70;;
10643;SDS011;5370;50.132;8.626;2023-09-12T05:32:46;20.13;;;11.55;;
10643;SDS011;5370;50.132;8.626;2023-09-12T05:35:12;22.33;;;10.80;;
10643;SDS011;5370;50.132;8.626;2023-09-12T05:37:38;17.58;;;11.88;;
10643;SDS011;5370;50.132;8.626;2023-09-12T05:40:03;21.88;;;10.75;;
10643;SDS011;5370;50.132;8.626;2023-09-12T05:42:29;23.60;;;11.20;;
10643;SDS011;5370;50.132;8.626;2023-09-12T05:44:55;26.50;;;11.40;;
10643;SDS011;5370;50.132;8.626;2023-09-12T05:47:21;21.83;;;11.02;;
10643;SDS011;5370;50.132;8.626;2023-09-12T05:49:47;17.85;;;10.88;;
10643;SDS011;5370;50.132;8.626;2023-09-12T05:52:13;25.30;;;11.90;;
10643;SDS011;5370;50.132;8.626;2023-09-12T05:54:41;19.10;;;10.82;;
10643;SDS011;5370;50.132;8.626;2023-09-12T05:57:07;19.88;;;10.23;;
10643;SDS011;5370;50.132;8.626;2023-09-12T05:59:37;25.52;;;10.98;;
10643;SDS011;5370;50.132;8.626;2023-09-12T06:02:04;16.38;;;10.23;;
10643;SDS011;5370;50.132;8.626;2023-09-12T06:04:31;17.90;;;10.30;;
10643;SDS011;5370;50.132;8.626;2023-09-12T06:06:57;16.92;;;10.50;;
10643;SDS011;5370;50.132;8.626;2023-09-12T06:09:22;17.75;;;11.13;;
10643;SDS011;5370;50.132;8.626;2023-09-12T06:11:48;26.60;;;11.55;;
10643;SDS011;5370;50.132;8.626;2023-09-12T06:14:13;22.70;;;12.15;;
10643;SDS011;5370;50.132;8.626;2023-09-12T06:16:39;17.42;;;9.93;;
10643;SDS011;5370;50.132;8.626;2023-09-12T06:19:04;21.90;;;10.65;;
10643;SDS011;5370;50.132;8.626;2023-09-12T06:21:30;22.70;;;10.80;;
10643;SDS011;5370;50.132;8.626;2023-09-12T06:24:09;28.52;;;10.82;;
10643;SDS011;5370;50.132;8.626;2023-09-12T06:26:39;27.70;;;10.80;;
10643;SDS011;5370;50.132;8.626;2023-09-12T06:29:05;23.70;;;11.50;;
10643;SDS011;5370;50.132;8.626;2023-09-12T06:31:31;21.55;;;10.00;;
10643;SDS011;5370;50.132;8.626;2023-09-12T06:33:57;17.92;;;10.02;;
10643;SDS011;5370;50.132;8.626;2023-09-12T06:36:25;24.58;;;10.90;;
10643;SDS011;5370;50.132;8.626;2023-09-12T06:38:54;18.85;;;10.00;;
10643;SDS011;5370;50.132;8.626;2023-09-12T06:41:21;16.02;;;10.55;;
10643;SDS011;5370;50.132;8.626;2023-09-12T06:43:46;21.55;;;10.68;;
10643;SDS011;5370;50.132;8.626;2023-09-12T06:46:12;20.77;;;11.15;;
10643;SDS011;5370;50.132;8.626;2023-09-12T06:48:38;19.08;;;9.88;;
10643;SDS011;5370;50.132;8.626;2023-09-12T06:51:08;17.98;;;10.88;;
10643;SDS011;5370;50.132;8.626;2023-09-12T06:53:34;17.30;;;9.95;;
10643;SDS011;5370;50.132;8.626;2023-09-12T06:55:59;17.45;;;11.43;;
10643;SDS011;5370;50.132;8.626;2023-09-12T06:58:25;18.42;;;10.88;;
10643;SDS011;5370;50.132;8.626;2023-09-12T07:00:51;21.58;;;11.07;;
10643;SDS011;5370;50.132;8.626;2023-09-12T07:03:16;21.05;;;10.70;;
10643;SDS011;5370;50.132;8.626;2023-09-12T07:05:42;22.48;;;10.65;;
10643;SDS011;5370;50.132;8.626;2023-09-12T07:08:08;25.00;;;11.30;;
10643;SDS011;5370;50.132;8.626;2023-09-12T07:10:34;21.42;;;10.60;;
10643;SDS011;5370;50.132;8.626;2023-09-12T07:13:00;22.73;;;10.55;;
10643;SDS011;5370;50.132;8.626;2023-09-12T07:15:26;19.73;;;10.45;;
10643;SDS011;5370;50.132;8.626;2023-09-12T07:17:52;32.92;;;10.38;;
10643;SDS011;5370;50.132;8.626;2023-09-12T07:20:17;19.77;;;10.20;;
10643;SDS011;5370;50.132;8.626;2023-09-12T07:22:45;21.92;;;10.55;;
10643;SDS011;5370;50.132;8.626;2023-09-12T07:25:11;25.30;;;10.45;;
10643;SDS011;5370;50.132;8.626;2023-09-12T07:27:38;25.95;;;10.02;;
10643;SDS011;5370;50.132;8.626;2023-09-12T07:30:05;20.20;;;9.95;;
10643;SDS011;5370;50.132;8.626;2023-09-12T07:32:31;12.52;;;9.15;;
10643;SDS011;5370;50.132;8.626;2023-09-12T07:34:56;22.38;;;9.00;;
10643;SDS011;5370;50.132;8.626;2023-09-12T07:37:22;12.68;;;8.02;;
10643;SDS011;5370;50.132;8.626;2023-09-12T07:39:47;16.67;;;8.15;;
10643;SDS011;5370;50.132;8.626;2023-09-12T07:42:13;18.10;;;9.05;;
10643;SDS011;5370;50.132;8.626;2023-09-12T07:44:39;15.88;;;8.52;;
10643;SDS011;5370;50.132;8.626;2023-09-12T07:47:04;20.20;;;8.65;;
10643;SDS011;5370;50.132;8.626;2023-09-12T07:49:30;19.10;;;8.10;;
10643;SDS011;5370;50.132;8.626;2023-09-12T07:51:56;14.27;;;7.70;;
10643;SDS011;5370;50.132;8.626;2023-09-12T07:54:22;21.92;;;7.35;;
10643;SDS011;5370;50.132;8.626;2023-09-12T07:56:48;16.52;;;7.20;;
10643;SDS011;5370;50.132;8.626;2023-09-12T07:59:13;15.82;;;8.30;;
10643;SDS011;5370;50.132;8.626;2023-09-12T08:01:39;16.45;;;7.22;;
10643;SDS011;5370;50.132;8.626;2023-09-12T08:04:05;15.25;;;7.57;;
10643;SDS011;5370;50.132;8.626;2023-09-12T08:06:31;22.42;;;7.65;;
10643;SDS011;5370;50.132;8.626;2023-09-12T08:08:57;23.35;;;7.30;;
10643;SDS011;5370;50.132;8.626;2023-09-12T08:11:23;13.98;;;7.63;;
10643;SDS011;5370;50.132;8.626;2023-09-12T08:13:49;17.95;;;7.72;;
10643;SDS011;5370;50.132;8.626;2023-09-12T08:16:15;18.08;;;7.72;;
10643;SDS011;5370;50.132;8.626;2023-09-12T08:18:40;18.40;;;7.22;;
10643;SDS011;5370;50.132;8.626;2023-09-12T08:21:06;21.48;;;7.78;;
10643;SDS011;5370;50.132;8.626;2023-09-12T08:23:31;16.13;;;7.05;;
10643;SDS011;5370;50.132;8.626;2023-09-12T08:25:57;21.17;;;8.18;;
10643;SDS011;5370;50.132;8.626;2023-09-12T08:28:23;13.73;;;7.35;;
10643;SDS011;5370;50.132;8.626;2023-09-12T08:30:48;16.50;;;7.75;;
10643;SDS011;5370;50.132;8.626;2023-09-12T08:33:14;17.20;;;7.25;;
10643;SDS011;5370;50.132;8.626;2023-09-12T08:35:39;13.50;;;6.53;;
10643;SDS011;5370;50.132;8.626;2023-09-12T08:38:05;16.00;;;6.95;;
10643;SDS011;5370;50.132;8.626;2023-09-12T08:40:32;18.08;;;6.60;;
10643;SDS011;5370;50.132;8.626;2023-09-12T08:42:58;12.02;;;5.88;;
10643;SDS011;5370;50.132;8.626;2023-09-12T08:45:24;14.25;;;6.22;;
10643;SDS011;5370;50.132;8.626;2023-09-12T08:47:50;19.55;;;7.20;;
10643;SDS011;5370;50.132;8.626;2023-09-12T08:50:18;17.70;;;7.00;;
10643;SDS011;5370;50.132;8.626;2023-09-12T08:52:46;14.07;;;6.07;;
10643;SDS011;5370;50.132;8.626;2023-09-12T08:55:12;14.95;;;6.25;;
10643;SDS011;5370;50.132;8.626;2023-09-12T08:57:40;18.10;;;7.50;;
10643;SDS011;5370;50.132;8.626;2023-09-12T09:00:07;13.15;;;6.72;;
10643;SDS011;5370;50.132;8.626;2023-09-12T09:02:35;17.83;;;7.05;;
10643;SDS011;5370;50.132;8.626;2023-09-12T09:05:03;19.42;;;6.90;;
10643;SDS011;5370;50.132;8.626;2023-09-12T09:07:33;10.00;;;6.50;;
10643;SDS011;5370;50.132;8.626;2023-09-12T09:10:03;12.73;;;6.82;;
10643;SDS011;5370;50.132;8.626;2023-09-12T09:12:34;14.80;;;6.47;;
10643;SDS011;5370;50.132;8.626;2023-09-12T09:17:54;14.63;;;6.70;;
10643;SDS011;5370;50.132;8.626;2023-09-12T09:20:25;14.18;;;6.68;;
10643;SDS011;5370;50.132;8.626;2023-09-12T09:22:56;14.35;;;6.93;;
10643;SDS011;5370;50.132;8.626;2023-09-12T09:25:24;15.45;;;6.80;;
10643;SDS011;5370;50.132;8.626;2023-09-12T09:27:50;17.15;;;6.95;;
10643;SDS011;5370;50.132;8.626;2023-09-12T09:30:16;15.25;;;6.78;;
10643;SDS011;5370;50.132;8.626;2023-09-12T09:32:43;15.63;;;6.68;;
10643;SDS011;5370;50.132;8.626;2023-09-12T09:35:10;19.02;;;7.55;;
10643;SDS011;5370;50.132;8.626;2023-09-12T09:37:36;12.63;;;7.03;;
10643;SDS011;5370;50.132;8.626;2023-09-12T09:40:04;15.55;;;6.13;;
10643;SDS011;5370;50.132;8.626;2023-09-12T09:42:31;15.60;;;7.43;;
10643;SDS011;5370;50.132;8.626;2023-09-12T09:44:57;18.70;;;7.28;;
10643;SDS011;5370;50.132;8.626;2023-09-12T09:47:22;17.25;;;6.95;;
10643;SDS011;5370;50.132;8.626;2023-09-12T09:49:51;19.38;;;6.63;;
10643;SDS011;5370;50.132;8.626;2023-09-12T09:52:16;16.52;;;7.20;;
10643;SDS011;5370;50.132;8.626;2023-09-12T09:54:52;19.88;;;7.65;;
10643;SDS011;5370;50.132;8.626;2023-09-12T09:57:17;18.20;;;6.80;;
10643;SDS011;5370;50.132;8.626;2023-09-12T09:59:43;15.35;;;7.03;;
10643;SDS011;5370;50.132;8.626;2023-09-12T10:02:16;15.10;;;7.78;;
10643;SDS011;5370;50.132;8.626;2023-09-12T10:04:44;13.90;;;6.93;;
10643;SDS011;5370;50.132;8.626;2023-09-12T10:07:10;18.35;;;7.07;;
10643;SDS011;5370;50.132;8.626;2023-09-12T10:09:36;18.85;;;7.68;;
10643;SDS011;5370;50.132;8.626;2023-09-12T10:12:02;21.90;;;6.28;;
10643;SDS011;5370;50.132;8.626;2023-09-12T10:14:28;15.75;;;6.88;;
10643;SDS011;5370;50.132;8.626;2023-09-12T10:17:00;17.88;;;6.45;;
10643;SDS011;5370;50.132;8.626;2023-09-12T10:19:38;14.68;;;6.78;;
10643;SDS011;5370;50.132;8.626;2023-09-12T10:22:09;16.73;;;7.45;;
10643;SDS011;5370;50.132;8.626;2023-09-12T10:25:00;14.63;;;6.43;;
10643;SDS011;5370;50.132;8.626;2023-09-12T10:27:25;12.63;;;6.60;;
10643;SDS011;5370;50.132;8.626;2023-09-12T10:29:52;18.95;;;6.60;;
10643;SDS011;5370;50.132;8.626;2023-09-12T10:32:18;12.45;;;5.57;;
10643;SDS011;5370;50.132;8.626;2023-09-12T10:34:45;14.38;;;6.43;;
10643;SDS011;5370;50.132;8.626;2023-09-12T10:37:12;17.45;;;6.20;;
10643;SDS011;5370;50.132;8.626;2023-09-12T10:39:42;15.30;;;6.05;;
10643;SDS011;5370;50.132;8.626;2023-09-12T10:42:08;15.38;;;6.03;;
10643;SDS011;5370;50.132;8.626;2023-09-12T10:44:35;13.88;;;6.70;;
10643;SDS011;5370;50.132;8.626;2023-09-12T10:47:01;20.00;;;6.50;;
10643;SDS011;5370;50.132;8.626;2023-09-12T10:49:29;18.58;;;6.88;;
10643;SDS011;5370;50.132;8.626;2023-09-12T10:51:55;18.23;;;6.50;;
10643;SDS011;5370;50.132;8.626;2023-09-12T10:54:25;12.13;;;6.60;;
10643;SDS011;5370;50.132;8.626;2023-09-12T10:57:04;20.52;;;7.43;;
10643;SDS011;5370;50.132;8.626;2023-09-12T10:59:36;15.65;;;6.90;;
10643;SDS011;5370;50.132;8.626;2023-09-12T11:02:28;17.80;;;6.95;;
10643;SDS011;5370;50.132;8.626;2023-09-12T11:04:56;17.45;;;7.57;;
10643;SDS011;5370;50.132;8.626;2023-09-12T11:07:32;16.50;;;5.75;;
10643;SDS011;5370;50.132;8.626;2023-09-12T11:10:17;20.45;;;6.93;;
10643;SDS011;5370;50.132;8.626;2023-09-12T11:12:44;16.75;;;6.03;;
10643;SDS011;5370;50.132;8.626;2023-09-12T11:15:13;16.63;;;7.07;;
10643;SDS011;5370;50.132;8.626;2023-09-12T11:17:43;15.35;;;6.10;;
10643;SDS011;5370;50.132;8.626;2023-09-12T11:20:10;12.15;;;6.35;;
10643;SDS011;5370;50.132;8.626;2023-09-12T11:22:38;14.23;;;6.25;;
10643;SDS011;5370;50.132;8.626;2023-09-12T11:25:25;10.70;;;6.47;;
10643;SDS011;5370;50.132;8.626;2023-09-12T11:30:17;14.90;;;6.55;;
10643;SDS011;5370;50.132;8.626;2023-09-12T11:32:51;16.38;;;6.22;;
10643;SDS011;5370;50.132;8.626;2023-09-12T11:35:22;13.68;;;6.70;;
10643;SDS011;5370;50.132;8.626;2023-09-12T11:38:01;15.82;;;6.47;;
10643;SDS011;5370;50.132;8.626;2023-09-12T11:42:59;16.15;;;5.93;;
10643;SDS011;5370;50.132;8.626;2023-09-12T11:45:26;22.45;;;6.97;;
10643;SDS011;5370;50.132;8.626;2023-09-12T11:47:52;18.55;;;7.57;;
10643;SDS011;5370;50.132;8.626;2023-09-12T11:50:31;12.48;;;6.57;;
10643;SDS011;5370;50.132;8.626;2023-09-12T11:53:05;14.63;;;6.25;;
10643;SDS011;5370;50.132;8.626;2023-09-12T11:55:33;23.13;;;7.13;;
10643;SDS011;5370;50.132;8.626;2023-09-12T11:58:02;15.45;;;6.13;;
10643;SDS011;5370;50.132;8.626;2023-09-12T12:00:28;20.05;;;6.93;;
10643;SDS011;5370;50.132;8.626;2023-09-12T12:02:54;13.07;;;6.25;;
10643;SDS011;5370;50.132;8.626;2023-09-12T12:05:21;14.30;;;6.13;;
10643;SDS011;5370;50.132;8.626;2023-09-12T12:07:47;9.90;;;6.22;;
10643;SDS011;5370;50.132;8.626;2023-09-12T12:10:13;14.88;;;6.53;;
10643;SDS011;5370;50.132;8.626;2023-09-12T12:12:40;19.92;;;6.65;;
10643;SDS011;5370;50.132;8.626;2023-09-12T12:15:10;16.02;;;7.22;;
10643;SDS011;5370;50.132;8.626;2023-09-12T12:17:41;11.05;;;6.75;;
10643;SDS011;5370;50.132;8.626;2023-09-12T12:20:08;14.65;;;6.38;;
10643;SDS011;5370;50.132;8.626;2023-09-12T12:22:36;18.75;;;6.40;;
10643;SDS011;5370;50.132;8.626;2023-09-12T12:25:05;17.73;;;7.32;;
10643;SDS011;5370;50.132;8.626;2023-09-12T12:27:32;12.18;;;5.88;;
10643;SDS011;5370;50.132;8.626;2023-09-12T12:30:00;12.73;;;6.38;;
10643;SDS011;5370;50.132;8.626;2023-09-12T12:32:25;11.85;;;6.25;;
10643;SDS011;5370;50.132;8.626;2023-09-12T12:34:51;14.10;;;6.78;;
10643;SDS011;5370;50.132;8.626;2023-09-12T12:37:16;17.25;;;6.43;;
10643;SDS011;5370;50.132;8.626;2023-09-12T12:39:42;16.90;;;7.15;;
10643;SDS011;5370;50.132;8.626;2023-09-12T12:42:08;14.55;;;6.47;;
10643;SDS011;5370;50.132;8.626;2023-09-12T12:44:34;12.15;;;6.68;;
10643;SDS011;5370;50.132;8.626;2023-09-12T12:47:03;20.42;;;6.93;;
10643;SDS011;5370;50.132;8.626;2023-09-12T12:49:30;13.57;;;6.82;;
10643;SDS011;5370;50.132;8.626;2023-09-12T12:52:11;19.27;;;7.53;;
10643;SDS011;5370;50.132;8.626;2023-09-12T12:54:36;14.32;;;6.93;;
10643;SDS011;5370;50.132;8.626;2023-09-12T12:57:02;17.15;;;6.93;;
10643;SDS011;5370;50.132;8.626;2023-09-12T12:59:28;14.57;;;7.72;;
10643;SDS011;5370;50.132;8.626;2023-09-12T13:01:55;14.13;;;6.78;;
10643;SDS011;5370;50.132;8.626;2023-09-12T13:04:20;15.35;;;7.28;;
10643;SDS011;5370;50.132;8.626;2023-09-12T13:06:48;15.85;;;7.78;;
10643;SDS011;5370;50.132;8.626;2023-09-12T13:09:14;17.65;;;6.70;;
10643;SDS011;5370;50.132;8.626;2023-09-12T13:11:41;13.20;;;6.43;;
10643;SDS011;5370;50.132;8.626;2023-09-12T13:14:07;14.95;;;7.30;;
10643;SDS011;5370;50.132;8.626;2023-09-12T13:16:36;18.48;;;7.25;;
10643;SDS011;5370;50.132;8.626;2023-09-12T13:19:03;15.82;;;7.68;;
10643;SDS011;5370;50.132;8.626;2023-09-12T13:21:28;11.07;;;6.95;;
10643;SDS011;5370;50.132;8.626;2023-09-12T13:23:54;18.77;;;7.65;;
10643;SDS011;5370;50.132;8.626;2023-09-12T13:26:19;10.18;;;6.95;;
10643;SDS011;5370;50.132;8.626;2023-09-12T13:28:45;16.02;;;9.45;;
10643;SDS011;5370;50.132;8.626;2023-09-12T13:31:10;17.45;;;9.98;;
10643;SDS011;5370;50.132;8.626;2023-09-12T13:33:36;13.38;;;8.02;;
10643;SDS011;5370;50.132;8.626;2023-09-12T13:36:02;12.65;;;6.93;;
10643;SDS011;5370;50.132;8.626;2023-09-12T13:38:28;14.10;;;7.53;;
10643;SDS011;5370;50.132;8.626;2023-09-12T13:40:54;17.83;;;8.85;;
10643;SDS011;5370;50.132;8.626;2023-09-12T13:43:19;15.93;;;8.55;;
10643;SDS011;5370;50.132;8.626;2023-09-12T13:45:45;22.58;;;7.18;;
10643;SDS011;5370;50.132;8.626;2023-09-12T13:48:10;10.88;;;7.30;;
10643;SDS011;5370;50.132;8.626;2023-09-12T13:50:37;16.02;;;8.18;;
10643;SDS011;5370;50.132;8.626;2023-09-12T13:53:03;15.38;;;7.90;;
10643;SDS011;5370;50.132;8.626;2023-09-12T13:55:31;15.40;;;7.05;;
10643;SDS011;5370;50.132;8.626;2023-09-12T13:58:03;13.93;;;7.00;;
10643;SDS011;5370;50.132;8.626;2023-09-12T14:00:30;17.75;;;6.45;;
10643;SDS011;5370;50.132;8.626;2023-09-12T14:02:55;12.35;;;6.68;;
10643;SDS011;5370;50.132;8.626;2023-09-12T14:05:21;10.02;;;7.53;;
10643;SDS011;5370;50.132;8.626;2023-09-12T14:07:47;19.60;;;7.40;;
10643;SDS011;5370;50.132;8.626;2023-09-12T14:10:13;12.45;;;6.63;;
10643;SDS011;5370;50.132;8.626;2023-09-12T14:12:39;11.35;;;8.02;;
10643;SDS011;5370;50.132;8.626;2023-09-12T14:15:04;17.73;;;6.55;;
10643;SDS011;5370;50.132;8.626;2023-09-12T14:17:32;12.80;;;7.60;;
10643;SDS011;5370;50.132;8.626;2023-09-12T14:19:58;9.18;;;6.07;;
10643;SDS011;5370;50.132;8.626;2023-09-12T14:22:23;12.27;;;7.07;;
10643;SDS011;5370;50.132;8.626;2023-09-12T14:24:49;15.18;;;7.70;;
10643;SDS011;5370;50.132;8.626;2023-09-12T14:27:15;16.27;;;7.22;;
10643;SDS011;5370;50.132;8.626;2023-09-12T14:29:40;19.35;;;8.00;;
10643;SDS011;5370;50.132;8.626;2023-09-12T14:32:10;18.23;;;8.85;;
10643;SDS011;5370;50.132;8.626;2023-09-12T14:34:36;12.35;;;7.55;;
10643;SDS011;5370;50.132;8.626;2023-09-12T14:37:02;11.82;;;6.85;;
10643;SDS011;5370;50.132;8.626;2023-09-12T14:39:27;13.70;;;6.95;;
10643;SDS011;5370;50.132;8.626;2023-09-12T14:41:53;11.38;;;7.18;;
10643;SDS011;5370;50.132;8.626;2023-09-12T14:44:19;14.35;;;7.40;;
10643;SDS011;5370;50.132;8.626;2023-09-12T14:46:48;13.38;;;7.07;;
10643;SDS011;5370;50.132;8.626;2023-09-12T14:49:17;15.38;;;6.97;;
10643;SDS011;5370;50.132;8.626;2023-09-12T14:51:42;13.25;;;6.82;;
10643;SDS011;5370;50.132;8.626;2023-09-12T14:54:08;15.30;;;7.05;;